EGKB

London Biggin Hill Airport

London, United Kingdom
METAR EGKB 251450Z 14006KT 090V170 9999 FEW045 15/06 Q1036
Observed Flight Rules
Sep-25 @ 14:50 UTC (16 minutes ago) Visual Flight Rules
Wind Visibility Clouds
140° at 6 knots 10,000+ meters
  • Few at 4,500' AGL
Temperatures Readings
Current 15°C / 59°F
Dewpoint 6°C / 43°F
Humidity 55%
Altimeter 30.59" Hg
Pressure 1036 hPa
Elevation 183
METAR EGKB 251450Z 14006KT 090V170 9999 FEW045 15/06 Q1036
Observed Flight Rules
Sep-25 @ 14:50 UTC
(16 minutes ago)
VFR
Wind Visibility
140° at 6 knots 10,000+ meters
Clouds
  • Few at 4,500' AGL
Temperature Dewpoint
15°C / 59°F 6°C / 43°F
Humidity Altimeter Pressure
55% 30.59" Hg 1036 hPa